Time;durP1;ratioP1;P1;durP2;ratioP2;P2;SDS_P1;SDS_P2;PMS_P1;PMS_P2;Temp;Humidity;BMP_temperature;BMP_pressure;BME280_temperature;BME280_humidity;BME280_pressure;Samples;Min_cycle;Max_cycle;Signal;HPM_P1;HPM_P2
2024/01/08 00:00:07;;;;;;;16.45;6.28;;;;;;;-9.85;60.94;100726.11;1661309;85;21122;-66
2024/01/08 00:02:36;;;;;;;17.07;6.22;;;;;;;-9.92;60.80;100726.81;1661193;85;21552;-67
2024/01/08 00:05:06;;;;;;;15.25;6.50;;;;;;;-10.02;60.70;100722.34;1661439;85;21062;-67
2024/01/08 00:07:35;;;;;;;16.05;5.67;;;;;;;-10.06;60.88;100730.47;1661308;85;21030;-68
2024/01/08 00:10:25;;;;;;;16.90;5.90;;;;;;;-10.07;60.73;100753.45;1661453;86;21071;-66
2024/01/08 00:12:54;;;;;;;15.72;5.92;;;;;;;-10.11;60.74;100737.73;1738851;82;21040;-67
2024/01/08 00:15:22;;;;;;;18.03;6.67;;;;;;;-10.20;60.67;100737.66;1741825;82;21077;-67
2024/01/08 00:17:51;;;;;;;15.53;6.15;;;;;;;-10.28;60.81;100743.25;1741869;82;21016;-66
2024/01/08 00:20:20;;;;;;;20.52;6.87;;;;;;;-10.32;60.92;100739.45;1739179;82;21025;-66
2024/01/08 00:22:49;;;;;;;17.02;6.50;;;;;;;-10.31;61.13;100730.59;1741869;82;21506;-66
2024/01/08 00:25:27;;;;;;;12.53;5.47;;;;;;;-10.25;61.15;100727.70;1741870;82;21517;-66
2024/01/08 00:27:50;;;;;;;15.55;6.42;;;;;;;-10.26;61.03;100732.14;1738544;82;21457;-67
2024/01/08 00:30:18;;;;;;;15.83;6.72;;;;;;;-10.28;60.96;100739.73;1739105;82;21061;-67
2024/01/08 00:32:48;;;;;;;14.00;6.10;;;;;;;-10.25;60.99;100740.95;1742139;82;21037;-67
2024/01/08 00:35:17;;;;;;;18.98;7.17;;;;;;;-10.22;60.96;100741.29;1741833;82;21040;-67
2024/01/08 00:37:45;;;;;;;14.38;6.53;;;;;;;-10.25;60.85;100744.92;1738962;81;21034;-67
2024/01/08 00:40:14;;;;;;;18.03;6.30;;;;;;;-10.22;60.92;100740.83;1741837;82;21037;-66
2024/01/08 00:42:43;;;;;;;15.55;6.45;;;;;;;-10.23;60.88;100740.42;1741977;82;21473;-67
2024/01/08 00:45:12;;;;;;;15.75;6.47;;;;;;;-10.24;60.70;100742.67;1739128;82;21066;-66
2024/01/08 00:47:41;;;;;;;17.48;6.70;;;;;;;-10.24;60.55;100742.67;1741851;82;21033;-66
2024/01/08 00:50:10;;;;;;;17.07;6.92;;;;;;;-10.27;60.37;100748.09;1742000;82;21526;-67
2024/01/08 00:52:39;;;;;;;14.47;6.42;;;;;;;-10.35;60.31;100752.34;1710410;82;21508;-67
2024/01/08 00:55:11;;;;;;;17.62;7.87;;;;;;;-10.43;60.30;100734.98;1741775;82;21066;-67
2024/01/08 00:57:39;;;;;;;15.53;6.33;;;;;;;-10.46;60.57;100749.20;1741987;82;21088;-67
2024/01/08 01:00:09;;;;;;;16.97;7.08;;;;;;;-10.44;60.49;100747.37;1741930;82;21057;-67
2024/01/08 01:02:42;;;;;;;13.98;5.75;;;;;;;-10.44;60.48;100746.50;1741987;82;21066;-67
2024/01/08 01:05:09;;;;;;;20.82;7.28;;;;;;;-10.44;60.42;100739.88;1741843;82;21437;-67
2024/01/08 01:07:38;;;;;;;15.70;6.58;;;;;;;-10.53;60.23;100741.55;1739056;81;21528;-67
2024/01/08 01:10:08;;;;;;;17.37;7.30;;;;;;;-10.57;60.34;100742.13;1741820;82;21120;-67
2024/01/08 01:12:36;;;;;;;17.65;7.78;;;;;;;-10.58;60.45;100743.04;1741805;82;21467;-67
2024/01/08 01:15:06;;;;;;;19.35;6.75;;;;;;;-10.57;60.47;100736.83;1738897;82;21473;-66
2024/01/08 01:17:34;;;;;;;16.20;6.12;;;;;;;-10.60;60.32;100740.91;1741792;82;21057;-67
2024/01/08 01:20:05;;;;;;;18.98;6.80;;;;;;;-10.61;60.40;100745.34;1742063;82;21077;-66
2024/01/08 01:22:33;;;;;;;17.65;6.35;;;;;;;-10.64;60.35;100744.12;1741742;82;21535;-67
2024/01/08 01:25:02;;;;;;;20.97;6.78;;;;;;;-10.63;60.39;100746.31;1739169;82;21097;-66
2024/01/08 01:27:31;;;;;;;17.77;7.30;;;;;;;-10.67;60.03;100736.30;1742006;82;21069;-66
2024/01/08 01:30:00;;;;;;;19.15;7.33;;;;;;;-10.75;60.15;100744.11;1715384;82;21037;-66
2024/01/08 01:32:28;;;;;;;19.00;7.05;;;;;;;-10.78;60.20;100749.06;1738870;81;21042;-67
2024/01/08 01:34:57;;;;;;;21.60;7.22;;;;;;;-10.77;60.34;100742.84;1741712;82;21097;-66
2024/01/08 01:37:27;;;;;;;15.93;6.08;;;;;;;-10.76;60.34;100742.39;1741803;82;21066;-67
2024/01/08 01:39:57;;;;;;;14.78;6.70;;;;;;;-10.80;60.35;100733.69;1742013;82;21118;-66
2024/01/08 01:42:26;;;;;;;17.10;6.40;;;;;;;-10.84;60.29;100755.89;1741721;82;21070;-68
2024/01/08 01:44:54;;;;;;;23.05;6.90;;;;;;;-10.87;60.26;100752.03;1741955;82;21118;-67
2024/01/08 01:47:23;;;;;;;19.50;7.37;;;;;;;-10.90;60.12;100742.88;1741938;82;21021;-66
2024/01/08 01:49:53;;;;;;;16.52;6.70;;;;;;;-10.92;60.29;100738.10;1738983;81;21018;-67
2024/01/08 01:52:22;;;;;;;17.95;7.00;;;;;;;-10.94;60.38;100744.77;1742065;82;21477;-67
2024/01/08 01:54:50;;;;;;;18.27;7.85;;;;;;;-10.97;60.33;100746.20;1741904;82;21523;-68
2024/01/08 01:57:19;;;;;;;16.60;7.33;;;;;;;-11.02;60.28;100740.66;1739110;82;21077;-66
2024/01/08 01:59:47;;;;;;;17.77;6.80;;;;;;;-11.04;60.42;100750.44;1741902;82;21062;-67
2024/01/08 02:02:16;;;;;;;24.12;7.35;;;;;;;-11.00;60.52;100740.16;1736768;82;21073;-66
2024/01/08 02:04:45;;;;;;;17.15;6.72;;;;;;;-10.98;60.38;100739.64;1736749;82;21097;-66
2024/01/08 02:07:14;;;;;;;18.27;6.42;;;;;;;-10.99;60.37;100739.23;1736800;82;21127;-67
2024/01/08 02:09:42;;;;;;;14.53;5.10;;;;;;;-11.03;60.42;100742.91;1737060;82;21070;-67
2024/01/08 02:12:11;;;;;;;16.23;6.05;;;;;;;-11.05;60.17;100753.55;1731199;82;21494;-67
2024/01/08 02:14:40;;;;;;;22.75;7.20;;;;;;;-11.09;60.10;100742.63;1726316;83;21043;-67
2024/01/08 02:17:09;;;;;;;18.80;7.05;;;;;;;-11.11;60.18;100747.56;1726514;83;21039;-67
2024/01/08 02:19:38;;;;;;;23.57;7.40;;;;;;;-11.18;60.18;100760.59;1726640;83;21012;-67
2024/01/08 02:22:06;;;;;;;20.52;7.60;;;;;;;-11.22;60.23;100746.16;1726388;83;21192;-66
2024/01/08 02:24:36;;;;;;;17.62;7.35;;;;;;;-11.25;60.22;100756.84;1726503;83;21054;-67
2024/01/08 02:27:05;;;;;;;15.10;6.78;;;;;;;-11.22;60.42;100754.55;1726464;83;21062;-67
2024/01/08 02:29:35;;;;;;;19.07;7.42;;;;;;;-11.21;60.50;100755.81;1726398;83;21070;-66
2024/01/08 02:32:07;;;;;;;16.85;7.05;;;;;;;-11.15;60.43;100760.49;1726579;83;21023;-67
2024/01/08 02:34:35;;;;;;;23.75;7.35;;;;;;;-11.16;60.35;100777.27;1726407;83;21463;-67
2024/01/08 02:37:04;;;;;;;15.05;6.00;;;;;;;-11.17;60.24;100779.52;1733850;83;21101;-67
2024/01/08 02:39:34;;;;;;;18.23;5.55;;;;;;;-11.16;60.18;100756.12;1733888;83;21450;-67
2024/01/08 02:42:03;;;;;;;20.15;6.83;;;;;;;-11.20;60.01;100764.61;1736091;83;21013;-67
2024/01/08 02:44:32;;;;;;;19.27;7.10;;;;;;;-11.26;60.13;100785.52;1733911;83;21081;-66
2024/01/08 02:47:00;;;;;;;17.82;6.67;;;;;;;-11.31;60.20;100768.94;1734030;83;21013;-67
2024/01/08 02:49:29;;;;;;;24.95;7.45;;;;;;;-11.29;60.39;100770.21;1736122;82;21081;-66
2024/01/08 02:51:58;;;;;;;17.42;6.97;;;;;;;-11.23;60.42;100777.48;1733657;83;21049;-68
2024/01/08 02:54:27;;;;;;;18.98;6.58;;;;;;;-11.20;60.20;100780.02;1734197;81;21025;-67
2024/01/08 02:56:57;;;;;;;19.07;5.95;;;;;;;-11.25;59.98;100779.31;1736095;82;21038;-67
2024/01/08 02:59:27;;;;;;;17.35;7.05;;;;;;;-11.29;59.98;100786.94;1733959;83;21037;-67
2024/01/08 03:01:55;;;;;;;18.90;6.80;;;;;;;-11.31;60.11;100787.45;1734357;83;21034;-67
2024/01/08 03:04:24;;;;;;;18.17;6.75;;;;;;;-11.23;60.21;100799.09;1736061;82;21085;-67
2024/01/08 03:06:52;;;;;;;16.80;6.22;;;;;;;-11.19;60.11;100788.83;1736061;83;21042;-67
2024/01/08 03:09:21;;;;;;;19.17;7.70;;;;;;;-11.16;60.00;100789.18;1736292;82;21073;-67
2024/01/08 03:11:50;;;;;;;14.75;6.00;;;;;;;-11.16;59.76;100797.11;1736724;82;21658;-67
2024/01/08 03:14:19;;;;;;;18.57;6.90;;;;;;;-11.15;59.76;100788.27;1739133;82;21140;-67
2024/01/08 03:16:47;;;;;;;21.35;6.62;;;;;;;-11.14;59.65;100796.14;1738890;82;21089;-67
2024/01/08 03:19:15;;;;;;;15.50;6.45;;;;;;;-11.18;59.61;100777.33;1739061;82;21341;-67
2024/01/08 03:21:44;;;;;;;18.35;6.12;;;;;;;-11.24;59.50;100793.41;1738924;81;21144;-66
2024/01/08 03:24:13;;;;;;;18.85;6.80;;;;;;;-11.31;59.43;100774.23;1739036;82;21022;-67
2024/01/08 03:26:41;;;;;;;15.38;6.28;;;;;;;-11.40;59.81;100800.11;1738908;82;21117;-66
2024/01/08 03:29:10;;;;;;;15.85;6.47;;;;;;;-11.40;60.02;100784.25;1739030;82;21065;-68
2024/01/08 03:31:44;;;;;;;17.50;6.12;;;;;;;-11.44;59.89;100811.70;1738954;82;21018;-67
2024/01/08 03:34:14;;;;;;;15.45;5.75;;;;;;;-11.43;59.97;100797.11;1738887;82;21156;-67
2024/01/08 03:36:46;;;;;;;18.30;6.42;;;;;;;-11.38;60.13;100795.64;1739062;82;21156;-67
2024/01/08 03:39:16;;;;;;;13.05;5.70;;;;;;;-11.38;60.22;100784.61;1738991;82;21073;-67
2024/01/08 03:41:44;;;;;;;15.25;6.12;;;;;;;-11.33;60.14;100795.89;1739139;82;21077;-66
2024/01/08 03:44:14;;;;;;;15.25;5.92;;;;;;;-11.29;60.00;100792.69;1738928;81;21065;-67
2024/01/08 03:46:43;;;;;;;16.97;6.37;;;;;;;-11.29;59.98;100800.63;1739145;82;21069;-67
2024/01/08 03:49:13;;;;;;;13.78;6.10;;;;;;;-11.27;59.96;100804.95;1739051;82;21434;-69
2024/01/08 03:51:42;;;;;;;17.35;6.12;;;;;;;-11.20;59.89;100798.53;1739113;81;21173;-67
2024/01/08 03:54:11;;;;;;;15.98;5.95;;;;;;;-11.16;59.76;100814.30;1739045;82;21046;-68
2024/01/08 03:56:41;;;;;;;17.02;6.05;;;;;;;-11.15;59.63;100806.78;1739106;82;21081;-67
2024/01/08 03:59:11;;;;;;;16.45;6.08;;;;;;;-11.17;59.58;100802.86;1739090;82;21081;-68
2024/01/08 04:01:44;;;;;;;19.90;6.30;;;;;;;-11.16;59.62;100806.37;1710958;82;21939;-68
2024/01/08 04:04:14;;;;;;;14.00;6.08;;;;;;;-11.11;59.68;100796.50;1738971;82;21057;-67
2024/01/08 04:06:43;;;;;;;13.08;5.50;;;;;;;-11.08;59.85;100799.04;1739091;82;21049;-67
2024/01/08 04:09:14;;;;;;;15.32;6.62;;;;;;;-11.03;59.95;100816.52;1738928;82;21033;-67
2024/01/08 04:11:43;;;;;;;16.73;5.87;;;;;;;-11.04;59.52;100800.24;1738836;82;21058;-67
2024/01/08 04:14:13;;;;;;;18.07;6.40;;;;;;;-11.09;59.60;100802.14;1738956;82;21077;-67
2024/01/08 04:16:41;;;;;;;14.33;5.67;;;;;;;-11.13;59.76;100808.91;1738916;82;21037;-69
2024/01/08 04:19:10;;;;;;;16.48;6.72;;;;;;;-11.12;60.06;100810.64;1738926;82;21089;-68
2024/01/08 04:21:39;;;;;;;17.90;6.15;;;;;;;-11.09;60.25;100814.51;1710546;82;21037;-68
2024/01/08 04:24:08;;;;;;;15.13;5.60;;;;;;;-11.10;60.21;100814.10;1739121;82;21046;-68
2024/01/08 04:26:37;;;;;;;13.32;5.65;;;;;;;-11.13;60.22;100813.75;1738986;82;21057;-68
2024/01/08 04:29:05;;;;;;;12.93;4.92;;;;;;;-11.11;60.37;100818.98;1738940;82;21505;-68
2024/01/08 04:31:34;;;;;;;16.90;5.75;;;;;;;-11.06;60.57;100821.02;1738948;82;21038;-68
2024/01/08 04:34:03;;;;;;;15.70;6.40;;;;;;;-11.07;60.58;100817.97;1738846;82;21042;-68
2024/01/08 04:36:32;;;;;;;16.93;5.90;;;;;;;-11.11;60.61;100822.95;1738795;81;21046;-68
2024/01/08 04:39:00;;;;;;;14.90;5.55;;;;;;;-11.20;60.50;100828.95;1738908;82;21049;-67
2024/01/08 04:41:29;;;;;;;14.03;5.65;;;;;;;-11.22;60.79;100829.46;1739053;81;21089;-69
2024/01/08 04:43:58;;;;;;;17.02;6.08;;;;;;;-11.19;60.96;100839.08;1738867;82;21033;-68
2024/01/08 04:46:27;;;;;;;14.60;5.95;;;;;;;-11.21;60.85;100831.65;1738985;81;21101;-68
2024/01/08 04:48:56;;;;;;;15.45;6.28;;;;;;;-11.21;60.89;100836.48;1739122;82;21490;-68
2024/01/08 04:51:25;;;;;;;16.05;6.10;;;;;;;-11.23;60.81;100832.16;1739107;82;21085;-68
2024/01/08 04:53:55;;;;;;;13.98;5.33;;;;;;;-11.24;60.84;100839.23;1738872;82;21057;-68
2024/01/08 04:56:27;;;;;;;14.98;5.25;;;;;;;-11.24;60.92;100842.33;1738941;82;21121;-67
2024/01/08 04:58:57;;;;;;;14.50;5.35;;;;;;;-11.23;60.85;100846.25;1738880;81;21054;-68
2024/01/08 05:01:27;;;;;;;17.23;5.90;;;;;;;-11.22;60.85;100841.36;1738889;82;21093;-67
2024/01/08 05:03:58;;;;;;;17.70;4.78;;;;;;;-11.23;60.67;100843.60;1738970;82;21014;-67
2024/01/08 05:06:27;;;;;;;14.03;5.47;;;;;;;-11.25;60.73;100857.33;1739056;82;21085;-68
2024/01/08 05:08:56;;;;;;;15.98;5.55;;;;;;;-11.32;60.60;100861.55;1738970;81;21519;-67
2024/01/08 05:11:24;;;;;;;17.65;6.00;;;;;;;-11.33;60.75;100858.03;1738919;82;21493;-67
2024/01/08 05:13:53;;;;;;;16.85;5.90;;;;;;;-11.37;60.70;100863.02;1738816;81;21073;-67
2024/01/08 05:16:22;;;;;;;17.87;5.17;;;;;;;-11.39;60.78;100866.16;1739139;82;21065;-67
2024/01/08 05:18:51;;;;;;;12.28;5.20;;;;;;;-11.38;60.70;100870.99;1739125;81;21073;-67
2024/01/08 05:21:20;;;;;;;11.48;5.62;;;;;;;-11.45;60.38;100876.92;1738980;81;21022;-68
2024/01/08 05:23:48;;;;;;;15.58;5.42;;;;;;;-11.48;60.54;100873.52;1710295;82;21212;-68
2024/01/08 05:26:19;;;;;;;13.25;5.65;;;;;;;-11.52;60.70;100876.71;1710960;82;21026;-68
2024/01/08 05:28:48;;;;;;;13.20;4.67;;;;;;;-11.50;60.84;100884.59;1739062;82;21282;-68
2024/01/08 05:31:17;;;;;;;13.43;4.85;;;;;;;-11.47;60.64;100889.33;1738955;81;21126;-68
2024/01/08 05:33:45;;;;;;;13.15;6.10;;;;;;;-11.50;60.63;100892.52;1739019;82;21105;-68
2024/01/08 05:36:14;;;;;;;10.70;4.70;;;;;;;-11.48;60.66;100892.88;1738870;82;21089;-68
2024/01/08 05:38:44;;;;;;;14.13;5.28;;;;;;;-11.43;60.65;100901.54;1738822;81;21520;-68
2024/01/08 05:41:13;;;;;;;15.35;5.85;;;;;;;-11.42;60.50;100909.02;1739071;82;21038;-68
2024/01/08 05:43:44;;;;;;;16.87;5.65;;;;;;;-11.42;60.46;100916.49;1739082;82;21041;-68
2024/01/08 05:46:14;;;;;;;14.05;5.15;;;;;;;-11.43;60.40;100918.73;1738917;82;21034;-68
2024/01/08 05:48:42;;;;;;;13.58;5.00;;;;;;;-11.45;60.47;100919.23;1738907;82;21026;-67
2024/01/08 05:51:12;;;;;;;11.97;4.75;;;;;;;-11.45;60.40;100921.01;1710170;81;21022;-67
2024/01/08 05:53:41;;;;;;;11.78;5.10;;;;;;;-11.47;60.50;100927.66;1739070;81;21066;-67
2024/01/08 05:56:10;;;;;;;14.87;5.90;;;;;;;-11.47;60.32;100940.02;1739017;82;21092;-67
2024/01/08 05:58:40;;;;;;;16.25;5.37;;;;;;;-11.53;60.35;100928.71;1739098;82;21125;-67
2024/01/08 06:01:09;;;;;;;13.95;5.75;;;;;;;-11.54;60.48;100934.91;1739011;82;21094;-67
2024/01/08 06:03:39;;;;;;;13.32;5.72;;;;;;;-11.55;60.43;100934.50;1738895;82;21523;-67
2024/01/08 06:06:08;;;;;;;13.90;4.78;;;;;;;-11.53;60.56;100945.03;1739032;82;21105;-68
2024/01/08 06:08:40;;;;;;;12.20;4.90;;;;;;;-11.49;60.47;100944.03;1710526;82;21077;-68
2024/01/08 06:11:09;;;;;;;14.05;5.78;;;;;;;-11.50;60.50;100939.66;1739196;82;21045;-68
2024/01/08 06:13:38;;;;;;;16.52;5.37;;;;;;;-11.47;60.53;100947.95;1738837;81;21068;-68
2024/01/08 06:16:07;;;;;;;13.15;5.42;;;;;;;-11.46;60.45;100957.16;1710257;82;21547;-67
2024/01/08 06:18:35;;;;;;;12.45;4.85;;;;;;;-11.49;60.35;100953.28;1710601;82;21089;-68
2024/01/08 06:21:05;;;;;;;10.75;4.55;;;;;;;-11.54;60.24;100957.83;1710374;82;21022;-67
2024/01/08 06:23:33;;;;;;;15.78;5.08;;;;;;;-11.56;60.21;100962.30;1738921;81;21030;-67
2024/01/08 06:26:05;;;;;;;16.82;4.90;;;;;;;-11.61;60.25;100962.89;1738927;81;21045;-67
2024/01/08 06:28:34;;;;;;;14.78;5.15;;;;;;;-11.62;60.29;100967.31;1739079;82;21026;-68
2024/01/08 06:31:04;;;;;;;14.47;5.58;;;;;;;-11.61;60.21;100961.57;1738925;82;21588;-67
2024/01/08 06:33:34;;;;;;;10.93;4.55;;;;;;;-11.60;60.35;100964.62;1738944;82;21477;-67
2024/01/08 06:36:04;;;;;;;10.65;4.12;;;;;;;-11.55;60.17;100976.80;1710685;82;21074;-67
2024/01/08 06:38:34;;;;;;;9.90;3.98;;;;;;;-11.56;60.13;100990.06;1739057;81;21073;-68
2024/01/08 06:41:04;;;;;;;11.85;5.15;;;;;;;-11.57;59.89;100989.64;1739205;82;21071;-67
2024/01/08 06:43:32;;;;;;;13.03;5.00;;;;;;;-11.55;59.85;100985.18;1738966;82;21073;-67
2024/01/08 06:46:01;;;;;;;16.90;4.85;;;;;;;-11.52;59.95;100983.31;1738982;81;21022;-67
2024/01/08 06:48:29;;;;;;;13.10;4.47;;;;;;;-11.47;59.90;100992.89;1738999;82;21006;-67
2024/01/08 06:51:05;;;;;;;12.40;4.50;;;;;;;-11.51;59.52;100994.75;1739206;82;21081;-66
2024/01/08 06:53:32;;;;;;;11.18;4.75;;;;;;;-11.56;59.63;100997.98;1738868;82;21062;-67
2024/01/08 06:56:01;;;;;;;15.78;5.83;;;;;;;-11.52;59.47;101002.28;1739074;82;21158;-66
2024/01/08 06:58:31;;;;;;;13.40;4.60;;;;;;;-11.49;59.45;101001.32;1739008;81;21270;-67
2024/01/08 07:01:00;;;;;;;15.20;5.25;;;;;;;-11.48;59.44;101017.59;1710427;82;21065;-67
2024/01/08 07:03:29;;;;;;;13.70;4.58;;;;;;;-11.53;59.04;101013.30;1710932;82;21022;-67
2024/01/08 07:06:10;;;;;;;11.70;4.85;;;;;;;-11.60;59.20;101006.46;1692190;84;21109;-68
2024/01/08 07:08:39;;;;;;;11.28;4.40;;;;;;;-11.60;59.45;101006.46;1692617;85;21526;-67
2024/01/08 07:11:08;;;;;;;17.35;5.25;;;;;;;-11.53;59.57;101015.95;1667528;85;21188;-68
2024/01/08 07:13:36;;;;;;;16.10;4.97;;;;;;;-11.48;59.49;101001.28;1692792;85;21044;-68
2024/01/08 07:16:05;;;;;;;11.40;5.10;;;;;;;-11.42;59.41;101018.73;1644996;85;21040;-68
2024/01/08 07:18:34;;;;;;;12.65;4.87;;;;;;;-11.46;59.12;101025.89;1692412;85;21107;-68
2024/01/08 07:21:04;;;;;;;13.45;5.08;;;;;;;-11.46;59.13;101017.95;1692478;85;21084;-67
2024/01/08 07:23:33;;;;;;;11.53;4.80;;;;;;;-11.43;59.03;101024.48;1692823;85;21081;-67
2024/01/08 07:28:47;;;;;;;16.32;5.25;;;;;;;-11.34;59.01;101018.92;1618087;88;21086;-68
2024/01/08 07:31:15;;;;;;;11.08;4.37;;;;;;;-11.34;58.87;101033.47;1618124;89;21116;-68
2024/01/08 07:33:44;;;;;;;14.58;4.67;;;;;;;-11.29;58.87;101026.73;1638478;86;21058;-67
2024/01/08 07:36:14;;;;;;;12.37;4.95;;;;;;;-11.28;58.73;101029.78;1638517;87;21074;-68
2024/01/08 07:38:43;;;;;;;11.12;5.08;;;;;;;-11.22;58.80;101033.56;1638287;87;21531;-67
2024/01/08 07:41:19;;;;;;;10.10;4.17;;;;;;;-11.16;58.65;101033.84;1638440;87;21082;-68
2024/01/08 07:43:49;;;;;;;14.03;4.72;;;;;;;-11.17;58.19;101033.43;1638406;87;21099;-68
2024/01/08 07:46:17;;;;;;;13.75;4.50;;;;;;;-11.27;58.13;101042.95;1638356;87;21530;-67
2024/01/08 07:48:47;;;;;;;11.90;4.53;;;;;;;-11.30;58.33;101039.08;1638361;87;21046;-67
2024/01/08 07:51:22;;;;;;;11.40;4.87;;;;;;;-11.27;58.27;101030.19;1638269;87;21592;-68
2024/01/08 07:53:51;;;;;;;11.85;5.05;;;;;;;-11.28;58.28;101030.65;1638421;87;21138;-68
2024/01/08 07:56:25;;;;;;;13.15;4.92;;;;;;;-11.33;58.29;101030.37;1638281;86;21034;-67
2024/01/08 07:58:54;;;;;;;8.10;4.10;;;;;;;-11.31;58.60;101037.80;1613062;87;21535;-67
2024/01/08 08:01:23;;;;;;;13.40;4.92;;;;;;;-11.28;58.58;101037.26;1638274;87;21074;-67
2024/01/08 08:03:52;;;;;;;15.38;5.37;;;;;;;-11.24;58.74;101034.94;1638459;87;21490;-67
2024/01/08 08:06:22;;;;;;;10.60;4.80;;;;;;;-11.20;58.58;101029.09;1638398;87;21091;-68
2024/01/08 08:08:52;;;;;;;15.00;4.85;;;;;;;-11.18;58.52;101029.92;1638424;87;21157;-67
2024/01/08 08:11:21;;;;;;;13.20;5.10;;;;;;;-11.12;58.78;101032.84;1638294;87;21514;-67
2024/01/08 08:13:51;;;;;;;14.53;5.08;;;;;;;-11.01;58.81;101046.64;1638252;87;21557;-67
2024/01/08 08:16:20;;;;;;;12.55;4.90;;;;;;;-10.95;58.45;101047.78;1612995;87;21092;-67
2024/01/08 08:18:51;;;;;;;14.95;5.15;;;;;;;-10.89;58.56;101044.95;1613239;87;21132;-67
2024/01/08 08:21:19;;;;;;;11.05;5.03;;;;;;;-10.82;58.33;101049.14;1638210;87;21095;-68
2024/01/08 08:23:48;;;;;;;16.65;5.15;;;;;;;-10.70;58.21;101050.09;1612988;87;21090;-67
2024/01/08 08:26:18;;;;;;;9.73;4.30;;;;;;;-10.57;57.98;101051.43;1638474;86;21109;-67
2024/01/08 08:28:49;;;;;;;12.78;4.03;;;;;;;-10.49;57.81;101050.32;1658083;85;21209;-67
2024/01/08 08:31:18;;;;;;;18.92;5.28;;;;;;;-10.52;57.14;101049.96;1635111;88;21090;-67
2024/01/08 08:33:46;;;;;;;12.95;4.80;;;;;;;-10.59;57.25;101058.55;1694942;85;21101;-68
2024/01/08 08:36:18;;;;;;;9.95;3.90;;;;;;;-10.52;57.68;101057.03;1670188;85;21050;-67
2024/01/08 08:38:46;;;;;;;13.50;4.62;;;;;;;-10.40;57.51;101068.14;1694608;85;21513;-68
2024/01/08 08:41:15;;;;;;;11.88;4.17;;;;;;;-10.35;57.04;101056.07;1694643;85;21085;-68
2024/01/08 08:43:44;;;;;;;11.55;4.62;;;;;;;-10.32;57.00;101058.62;1694746;84;21109;-67
2024/01/08 08:46:12;;;;;;;12.30;4.78;;;;;;;-10.32;56.85;101054.64;1694591;85;21030;-67
2024/01/08 08:48:41;;;;;;;14.33;5.03;;;;;;;-10.35;56.90;101055.61;1694829;85;21010;-68
2024/01/08 08:51:11;;;;;;;13.15;4.30;;;;;;;-10.31;57.13;101057.70;1669720;85;21051;-68
2024/01/08 08:53:39;;;;;;;13.25;5.00;;;;;;;-10.30;57.13;101052.36;1694708;84;21497;-69
2024/01/08 08:56:10;;;;;;;12.90;4.10;;;;;;;-10.28;57.29;101050.98;1694850;85;21531;-67
2024/01/08 08:58:39;;;;;;;10.20;4.00;;;;;;;-10.27;57.22;101055.36;1694600;85;21121;-68
2024/01/08 09:01:11;;;;;;;14.03;4.72;;;;;;;-10.25;57.11;101046.91;1669995;85;21034;-68
2024/01/08 09:03:45;;;;;;;8.65;4.17;;;;;;;-10.20;57.24;101053.38;1666911;84;21217;-68
2024/01/08 09:06:14;;;;;;;11.28;4.05;;;;;;;-10.16;56.87;101051.00;1670234;85;21058;-68
2024/01/08 09:08:44;;;;;;;12.47;4.10;;;;;;;-10.24;56.75;101048.64;1658282;86;21089;-68
2024/01/08 09:11:13;;;;;;;15.55;4.95;;;;;;;-10.32;56.59;101041.41;1669974;84;21079;-68
2024/01/08 09:13:42;;;;;;;24.75;5.05;;;;;;;-10.31;57.24;101051.08;1669895;86;21490;-66
2024/01/08 09:16:12;;;;;;;12.63;4.67;;;;;;;-10.27;57.48;101050.92;1678664;84;21052;-67
2024/01/08 09:18:42;;;;;;;10.15;4.60;;;;;;;-10.17;57.50;101056.76;1671002;84;21052;-68
2024/01/08 09:21:13;;;;;;;10.13;4.33;;;;;;;-10.08;58.40;101050.28;1642907;87;21568;-70
2024/01/08 09:23:42;;;;;;;10.93;4.60;;;;;;;-9.99;57.94;101044.21;1636016;87;21457;-69
2024/01/08 09:26:11;;;;;;;10.23;4.70;;;;;;;-9.96;57.49;101044.11;1648155;87;21105;-69
2024/01/08 09:28:40;;;;;;;11.48;4.30;;;;;;;-9.93;57.31;101038.70;1680357;84;21070;-70
2024/01/08 09:31:09;;;;;;;13.53;4.37;;;;;;;-9.92;57.08;101051.03;1681029;85;21102;-71
2024/01/08 09:33:38;;;;;;;9.98;4.15;;;;;;;-9.94;56.99;101043.59;1700164;84;21031;-71
2024/01/08 09:36:07;;;;;;;8.75;4.05;;;;;;;-9.96;56.94;101052.05;1723059;82;21074;-70
2024/01/08 09:38:36;;;;;;;9.75;4.72;;;;;;;-9.98;56.90;101047.73;1705160;83;21474;-69
2024/01/08 09:41:08;;;;;;;10.63;3.92;;;;;;;-10.04;56.93;101044.83;1723332;83;21010;-71
2024/01/08 09:43:40;;;;;;;12.05;3.83;;;;;;;-10.07;57.13;101046.72;1703039;84;21090;-69
2024/01/08 09:46:11;;;;;;;11.55;4.30;;;;;;;-10.11;57.37;101039.33;1723535;83;21006;-68
2024/01/08 09:49:05;;;;;;;14.43;5.03;;;;;;;-10.12;57.34;101038.05;1641652;87;21055;-69
2024/01/08 09:51:34;;;;;;;11.05;4.35;;;;;;;-10.20;57.14;101047.62;1647172;86;21060;-69
2024/01/08 09:54:05;;;;;;;10.53;4.20;;;;;;;-10.26;57.41;101033.25;1643323;87;21088;-69
2024/01/08 09:56:35;;;;;;;11.00;3.95;;;;;;;-10.24;57.64;101040.69;1615388;89;21104;-70
2024/01/08 09:59:04;;;;;;;13.43;4.37;;;;;;;-10.26;57.75;101038.09;1627007;87;21450;-69
2024/01/08 10:01:34;;;;;;;12.60;4.53;;;;;;;-10.25;57.90;101032.34;1655373;87;21072;-69
2024/01/08 10:04:04;;;;;;;13.38;4.37;;;;;;;-10.23;57.89;101035.80;1655629;87;21037;-70
2024/01/08 10:06:34;;;;;;;16.55;5.00;;;;;;;-10.21;57.65;101037.07;1655294;87;21533;-70
2024/01/08 10:09:04;;;;;;;15.93;4.85;;;;;;;-10.20;57.77;101031.72;1617402;87;21508;-70
2024/01/08 10:11:34;;;;;;;22.58;5.45;;;;;;;-10.14;57.91;101033.27;1615661;86;21037;-70
2024/01/08 10:14:05;;;;;;;16.45;4.85;;;;;;;-10.13;57.91;101035.86;1641324;87;21158;-70
2024/01/08 10:16:56;;;;;;;11.75;4.45;;;;;;;-10.12;57.94;101032.30;1615732;87;21096;-70
2024/01/08 10:19:28;;;;;;;14.35;4.50;;;;;;;-10.10;57.93;101022.97;1625838;87;22130;-68
2024/01/08 10:22:15;;;;;;;14.43;5.45;;;;;;;-10.07;57.91;101025.06;1616717;88;21090;-69
2024/01/08 10:24:48;;;;;;;14.28;4.47;;;;;;;-10.02;58.02;101023.58;1626241;87;21136;-70
2024/01/08 10:27:18;;;;;;;11.97;5.03;;;;;;;-9.96;58.09;101026.02;1645633;87;21100;-67
2024/01/08 10:29:48;;;;;;;11.43;4.95;;;;;;;-9.94;57.77;101021.52;1621647;87;21120;-69
2024/01/08 10:32:18;;;;;;;10.48;4.50;;;;;;;-9.94;57.92;101030.34;1645874;86;21060;-69
2024/01/08 10:34:49;;;;;;;13.85;4.78;;;;;;;-9.93;57.73;101018.82;1645946;87;21120;-69
2024/01/08 10:37:19;;;;;;;11.10;5.05;;;;;;;-9.96;57.78;101023.36;1646025;86;21077;-70
2024/01/08 10:39:48;;;;;;;9.90;4.08;;;;;;;-9.90;57.89;101021.83;1621690;87;21570;-69
2024/01/08 10:42:19;;;;;;;14.90;4.90;;;;;;;-9.86;57.85;101021.26;1646088;87;21088;-69
2024/01/08 10:44:49;;;;;;;10.63;4.40;;;;;;;-9.87;57.92;101016.41;1645857;86;21545;-69
2024/01/08 10:47:21;;;;;;;11.97;4.45;;;;;;;-9.81;57.92;101017.98;1645919;87;21108;-69
2024/01/08 10:49:56;;;;;;;17.70;5.92;;;;;;;-9.78;57.98;101017.88;1645953;86;21101;-71
2024/01/08 10:52:28;;;;;;;10.58;4.65;;;;;;;-9.74;58.05;101017.75;1646138;87;21100;-69
2024/01/08 10:54:58;;;;;;;9.20;4.05;;;;;;;-9.69;58.11;101018.91;1645843;87;21060;-71
2024/01/08 10:58:05;;;;;;;10.13;4.30;;;;;;;-9.65;57.82;101021.39;1621763;87;21508;-71
2024/01/08 11:00:34;;;;;;;10.72;4.22;;;;;;;-9.65;57.64;101008.13;1616474;89;21120;-70
2024/01/08 11:03:03;;;;;;;10.72;4.45;;;;;;;-9.67;57.54;101024.56;1616598;89;21093;-71
2024/01/08 11:05:33;;;;;;;13.00;4.75;;;;;;;-9.66;57.57;101020.13;1607368;88;21130;-70
2024/01/08 11:08:04;;;;;;;12.40;4.87;;;;;;;-9.67;57.72;101022.37;1634768;87;21107;-69
2024/01/08 11:10:35;;;;;;;12.95;5.30;;;;;;;-9.65;58.07;101023.18;1634517;88;21066;-69
2024/01/08 11:13:05;;;;;;;14.53;5.20;;;;;;;-9.60;58.31;101016.79;1634574;87;21486;-69
2024/01/08 11:15:35;;;;;;;19.40;6.83;;;;;;;-9.57;58.19;101016.27;1611094;88;21619;-69
2024/01/08 11:18:06;;;;;;;11.60;4.97;;;;;;;-9.57;58.30;101017.60;1562872;90;21540;-70
2024/01/08 11:20:41;;;;;;;14.03;5.47;;;;;;;-9.50;58.51;101026.61;1579460;90;21153;-70
2024/01/08 11:23:41;;;;;;;9.78;4.40;;;;;;;-9.46;58.46;101026.89;1581169;90;21091;-70